createdAt,value
2018-07-27T04:01:01.204Z,0.00
2018-07-27T04:02:01.076Z,0.00
2018-07-27T04:03:53.788Z,0.00
2018-07-27T04:04:53.663Z,0.00
2018-07-27T04:06:46.355Z,0.00
2018-07-27T04:07:46.252Z,0.00
2018-07-27T04:09:38.961Z,0.00
2018-07-27T04:10:38.839Z,0.00
2018-07-27T04:12:31.538Z,0.00
2018-07-27T04:13:31.429Z,0.00
2018-07-27T04:15:24.140Z,0.00
2018-07-27T04:16:24.018Z,0.00
2018-07-27T04:18:16.722Z,0.00
2018-07-27T04:19:16.611Z,0.00
2018-07-27T04:21:09.328Z,0.00
2018-07-27T04:22:09.204Z,0.00
2018-07-27T04:24:02.049Z,0.00
2018-07-27T04:25:01.802Z,0.00
2018-07-27T04:26:54.512Z,0.00
2018-07-27T04:27:54.390Z,0.00
2018-07-27T04:29:47.079Z,0.00
2018-07-27T04:30:46.981Z,0.00
2018-07-27T04:32:39.690Z,0.00
2018-07-27T04:33:39.571Z,0.00
2018-07-27T04:35:32.284Z,0.00
2018-07-27T04:36:32.155Z,0.00
2018-07-27T04:38:24.849Z,0.00
2018-07-27T04:39:24.745Z,0.00
2018-07-27T04:41:17.456Z,0.00
2018-07-27T04:42:17.334Z,0.00
2018-07-27T04:44:10.030Z,0.00
2018-07-27T04:45:09.931Z,0.00
2018-07-27T04:47:02.637Z,0.00
2018-07-27T04:48:02.512Z,0.00
2018-07-27T04:49:55.210Z,0.00
2018-07-27T04:50:55.108Z,0.00
2018-07-27T04:52:47.820Z,0.00
2018-07-27T04:53:47.714Z,0.00
2018-07-27T04:55:40.407Z,0.00
2018-07-27T04:56:40.352Z,0.00
2018-07-27T04:58:32.985Z,0.00
2018-07-27T04:59:32.874Z,0.00
2018-07-27T05:01:25.595Z,0.00
2018-07-27T05:02:25.460Z,0.00
2018-07-27T05:04:18.163Z,0.00
2018-07-27T05:05:18.052Z,0.00
2018-07-27T05:07:10.765Z,0.00
2018-07-27T05:08:10.643Z,0.00
2018-07-27T05:10:03.339Z,0.00
2018-07-27T05:11:03.234Z,0.00
2018-07-27T05:12:55.957Z,0.00
2018-07-27T05:13:55.825Z,0.00
2018-07-27T05:15:48.516Z,0.00
2018-07-27T05:16:48.422Z,0.00
2018-07-27T05:18:41.137Z,0.00
2018-07-27T05:19:41.016Z,0.00
2018-07-27T05:21:33.735Z,0.00
2018-07-27T05:22:33.608Z,0.00
2018-07-27T05:24:26.297Z,0.00
2018-07-27T05:25:26.204Z,0.00
2018-07-27T05:27:18.913Z,0.00
2018-07-27T05:28:18.790Z,0.00
2018-07-27T05:30:11.480Z,0.00
2018-07-27T05:31:11.386Z,0.00
2018-07-27T05:33:04.091Z,0.00
2018-07-27T05:34:03.970Z,0.00
2018-07-27T05:35:56.666Z,0.00
2018-07-27T05:36:56.565Z,0.00
2018-07-27T05:38:49.283Z,0.00
2018-07-27T05:39:49.160Z,0.00
2018-07-27T05:41:41.879Z,0.00
2018-07-27T05:42:41.758Z,0.00
2018-07-27T05:44:34.448Z,0.00
2018-07-27T05:45:34.352Z,0.00
2018-07-27T05:47:27.071Z,0.00
2018-07-27T05:48:26.952Z,0.00
2018-07-27T05:50:19.657Z,0.00
2018-07-27T05:51:19.558Z,0.00
2018-07-27T05:53:12.272Z,0.00
2018-07-27T05:54:12.153Z,0.00
2018-07-27T05:56:04.845Z,0.00
2018-07-27T05:57:04.748Z,0.00
2018-07-27T05:58:57.488Z,0.00
2018-07-27T05:59:57.356Z,0.00
2018-07-27T06:01:50.075Z,0.00
2018-07-27T06:02:49.949Z,0.00
2018-07-27T06:04:42.654Z,0.00
2018-07-27T06:05:42.541Z,0.00
2018-07-27T06:07:35.265Z,0.00
2018-07-27T06:08:35.140Z,0.00
2018-07-27T06:10:27.846Z,0.00
2018-07-27T06:11:27.740Z,0.00
2018-07-27T06:13:20.456Z,0.00
2018-07-27T06:14:20.335Z,0.00
2018-07-27T06:16:13.021Z,0.00
2018-07-27T06:17:12.929Z,0.00
2018-07-27T06:19:05.668Z,0.00
2018-07-27T06:20:05.532Z,0.00
2018-07-27T06:21:58.234Z,0.00
2018-07-27T06:22:58.136Z,0.00
2018-07-27T06:24:50.859Z,0.00
2018-07-27T06:25:50.735Z,0.00
2018-07-27T06:27:43.454Z,0.00
2018-07-27T06:28:43.331Z,0.00
2018-07-27T06:30:36.026Z,0.00
2018-07-27T06:31:35.925Z,0.00
2018-07-27T06:33:28.645Z,38880.00
2018-07-27T06:34:28.526Z,51392.00
2018-07-27T06:36:21.227Z,57280.00
2018-07-27T06:37:21.130Z,54560.00
2018-07-27T06:39:13.950Z,55552.00
2018-07-27T06:40:13.741Z,57568.00
2018-07-27T06:42:06.443Z,55168.00
2018-07-27T06:43:06.352Z,60224.00
2018-07-27T06:44:59.080Z,51456.00
2018-07-27T06:45:58.968Z,59488.00
2018-07-27T06:47:51.722Z,62496.00
2018-07-27T06:48:51.607Z,57952.00
2018-07-27T06:50:44.322Z,55840.00
2018-07-27T06:51:44.237Z,59424.00
2018-07-27T06:53:36.994Z,58720.00
2018-07-27T06:54:36.863Z,60000.00
2018-07-27T06:56:29.581Z,60480.00
2018-07-27T06:57:29.498Z,66944.00
2018-07-27T06:59:22.242Z,65184.00
2018-07-27T07:00:22.135Z,63776.00
2018-07-27T07:02:15.701Z,68288.00
2018-07-27T07:03:15.617Z,66944.00
2018-07-27T07:05:08.497Z,67104.00
2018-07-27T07:06:08.262Z,64800.00
2018-07-27T07:08:01.006Z,64288.00
2018-07-27T07:09:00.948Z,62144.00
2018-07-27T07:10:53.621Z,66496.00
2018-07-27T07:11:53.532Z,67840.00
2018-07-27T07:13:46.277Z,64960.00
2018-07-27T07:14:46.171Z,66272.00
2018-07-27T07:16:38.895Z,68128.00
2018-07-27T07:17:38.812Z,66368.00
2018-07-27T07:19:31.561Z,71904.00
2018-07-27T07:20:31.459Z,70208.00
2018-07-27T07:22:24.181Z,66912.00
2018-07-27T07:23:24.095Z,69760.00
2018-07-27T07:25:16.977Z,70592.00
2018-07-27T07:26:16.741Z,66336.00
2018-07-27T07:28:09.469Z,66336.00
2018-07-27T07:29:09.389Z,65408.00
2018-07-27T07:31:02.144Z,64384.00
2018-07-27T07:32:02.037Z,64480.00
2018-07-27T07:33:54.765Z,69696.00
2018-07-27T07:34:54.680Z,68576.00
2018-07-27T07:36:47.428Z,64768.00
2018-07-27T07:37:47.331Z,58080.00
2018-07-27T07:39:40.085Z,64256.00
2018-07-27T07:40:39.975Z,67808.00
2018-07-27T07:42:32.701Z,67072.00
2018-07-27T07:43:32.619Z,67680.00
2018-07-27T07:45:25.371Z,78976.00
2018-07-27T07:46:25.267Z,77216.00
2018-07-27T07:48:17.990Z,77056.00
2018-07-27T07:49:17.933Z,69568.00
2018-07-27T07:51:10.686Z,63136.00
2018-07-27T07:52:10.553Z,67904.00
2018-07-27T07:54:03.284Z,66560.00
2018-07-27T07:55:03.197Z,61440.00
2018-07-27T07:56:55.954Z,61824.00
2018-07-27T07:57:55.848Z,61312.00
2018-07-27T07:59:48.575Z,66976.00
2018-07-27T08:00:48.511Z,68768.00
2018-07-27T08:02:41.244Z,71040.00
2018-07-27T08:03:41.139Z,71680.00
2018-07-27T08:05:33.950Z,73472.00
2018-07-27T08:06:33.791Z,73248.00
2018-07-27T08:08:26.521Z,73248.00
2018-07-27T08:09:26.438Z,67616.00
2018-07-27T08:11:19.190Z,68544.00
2018-07-27T08:12:19.084Z,73024.00
2018-07-27T08:14:11.826Z,64224.00
2018-07-27T08:15:11.738Z,59360.00
2018-07-27T08:17:04.489Z,74304.00
2018-07-27T08:18:04.384Z,77760.00
2018-07-27T08:19:57.144Z,68512.00
2018-07-27T08:20:57.039Z,64352.00
2018-07-27T08:22:49.805Z,72800.00
2018-07-27T08:23:49.688Z,75200.00
2018-07-27T08:25:42.421Z,74464.00
2018-07-27T08:26:42.333Z,74080.00
2018-07-27T08:28:35.083Z,70720.00
2018-07-27T08:29:34.980Z,69696.00
2018-07-27T08:31:27.737Z,71104.00
2018-07-27T08:32:27.628Z,73760.00
2018-07-27T08:34:20.350Z,74176.00
2018-07-27T08:35:20.272Z,76096.00
2018-07-27T08:37:13.021Z,73696.00
2018-07-27T08:38:12.920Z,71232.00
2018-07-27T08:40:05.655Z,68288.00
2018-07-27T08:41:05.574Z,67968.00
2018-07-27T08:42:58.361Z,66816.00
2018-07-27T08:43:58.255Z,60096.00
2018-07-27T08:45:50.975Z,60160.00
2018-07-27T08:46:50.892Z,64000.00
2018-07-27T08:48:43.643Z,49984.00
2018-07-27T08:49:43.537Z,28672.00
2018-07-27T08:51:36.261Z,12048.00
2018-07-27T08:52:36.178Z,10260.00
2018-07-27T08:54:28.937Z,8344.00
2018-07-27T08:55:28.818Z,7720.00
2018-07-27T08:57:21.567Z,6840.00
2018-07-27T08:58:21.447Z,6616.00
2018-07-27T09:00:14.165Z,6332.00
2018-07-27T09:01:14.074Z,6280.00
2018-07-27T09:03:06.810Z,6128.00
2018-07-27T09:04:06.700Z,6188.00
2018-07-27T09:05:59.416Z,6156.00
2018-07-27T09:06:59.337Z,6120.00
2018-07-27T09:08:52.072Z,6084.00
2018-07-27T09:09:51.955Z,6052.00
2018-07-27T09:11:44.664Z,6024.00
2018-07-27T09:12:44.573Z,5948.00
2018-07-27T09:14:37.308Z,5960.00
2018-07-27T09:15:37.192Z,6052.00
2018-07-27T09:17:29.939Z,6080.00
2018-07-27T09:18:29.845Z,6048.00
2018-07-27T09:20:23.075Z,5908.00
2018-07-27T09:21:22.940Z,5812.00
2018-07-27T09:23:15.673Z,6016.00
2018-07-27T09:24:15.623Z,6072.00
2018-07-27T09:26:08.285Z,6040.00
2018-07-27T09:27:08.181Z,6024.00
2018-07-27T09:29:00.910Z,6036.00
2018-07-27T09:30:00.793Z,6080.00
2018-07-27T09:31:53.496Z,6032.00
2018-07-27T09:32:53.405Z,6024.00
2018-07-27T09:34:46.134Z,6044.00
2018-07-27T09:35:46.022Z,6088.00
2018-07-27T09:37:38.752Z,6064.00
2018-07-27T09:38:38.634Z,6036.00
2018-07-27T09:40:31.361Z,6016.00
2018-07-27T09:41:31.244Z,5964.00
2018-07-27T09:43:23.969Z,5932.00
2018-07-27T09:44:23.885Z,5968.00
2018-07-27T09:46:16.564Z,5952.00
2018-07-27T09:47:16.469Z,5928.00
2018-07-27T09:49:09.193Z,5864.00
2018-07-27T09:50:09.077Z,5848.00
2018-07-27T09:52:01.839Z,5844.00
2018-07-27T09:53:01.716Z,5856.00
2018-07-27T09:54:54.448Z,5824.00
2018-07-27T09:55:54.333Z,5776.00
2018-07-27T09:57:47.100Z,5780.00
2018-07-27T09:58:46.944Z,5776.00
2018-07-27T10:00:39.651Z,5748.00
2018-07-27T10:01:39.556Z,5756.00
2018-07-27T10:03:32.291Z,5804.00
2018-07-27T10:04:32.172Z,5792.00
2018-07-27T10:06:24.879Z,5760.00
2018-07-27T10:07:24.783Z,5740.00
2018-07-27T10:09:17.515Z,5732.00
2018-07-27T10:10:17.400Z,5740.00
2018-07-27T10:12:10.100Z,5740.00
2018-07-27T10:13:10.016Z,5744.00
2018-07-27T10:15:02.745Z,5744.00
2018-07-27T10:16:02.627Z,5736.00
2018-07-27T10:17:55.329Z,5700.00
2018-07-27T10:18:55.252Z,5604.00
2018-07-27T10:20:47.966Z,5528.00
2018-07-27T10:21:47.850Z,5532.00
2018-07-27T10:23:40.560Z,5356.00
2018-07-27T10:24:40.477Z,5280.00
2018-07-27T10:26:33.188Z,5208.00
2018-07-27T10:27:33.073Z,5236.00
2018-07-27T10:29:25.811Z,5292.00
2018-07-27T10:30:25.688Z,5316.00
2018-07-27T10:32:18.390Z,5296.00
2018-07-27T10:33:18.299Z,5232.00
2018-07-27T10:35:11.026Z,5120.00
2018-07-27T10:36:10.907Z,5080.00
2018-07-27T10:38:03.622Z,4996.00
2018-07-27T10:39:03.529Z,4960.00
2018-07-27T10:40:56.259Z,4980.00
2018-07-27T10:41:56.140Z,4988.00
2018-07-27T10:43:48.846Z,5040.00
2018-07-27T10:44:48.782Z,5024.00
2018-07-27T10:46:41.482Z,4996.00
2018-07-27T10:47:41.369Z,4992.00
2018-07-27T10:49:34.073Z,4924.00
2018-07-27T10:50:33.977Z,4872.00
2018-07-27T10:52:26.705Z,4804.00
2018-07-27T10:53:26.592Z,4784.00
2018-07-27T10:55:19.312Z,4736.00
2018-07-27T10:56:19.244Z,4668.00
2018-07-27T10:58:11.952Z,4584.00
2018-07-27T10:59:11.822Z,4584.00
2018-07-27T11:01:04.541Z,4552.00
2018-07-27T11:02:04.424Z,4548.00
2018-07-27T11:03:57.138Z,4516.00
2018-07-27T11:04:57.043Z,4480.00
2018-07-27T11:06:49.771Z,4456.00
2018-07-27T11:07:49.654Z,4468.00
2018-07-27T11:09:42.459Z,4468.00
2018-07-27T11:10:42.257Z,4468.00
2018-07-27T11:12:34.987Z,4500.00
2018-07-27T11:13:34.884Z,4476.00
2018-07-27T11:15:27.575Z,4476.00
2018-07-27T11:16:27.540Z,4440.00
2018-07-27T11:18:20.205Z,4464.00
2018-07-27T11:19:20.086Z,4440.00
2018-07-27T11:21:12.798Z,4428.00
2018-07-27T11:22:12.718Z,4424.00
2018-07-27T11:24:05.434Z,4336.00
2018-07-27T11:25:05.373Z,4272.00
2018-07-27T11:26:58.042Z,4176.00
2018-07-27T11:27:57.925Z,4148.00
2018-07-27T11:29:50.628Z,4132.00
2018-07-27T11:30:50.538Z,4156.00
2018-07-27T11:32:43.264Z,4100.00
2018-07-27T11:33:43.148Z,4096.00
2018-07-27T11:35:35.853Z,4060.00
2018-07-27T11:36:35.761Z,4032.00
2018-07-27T11:38:28.498Z,4044.00
2018-07-27T11:39:28.385Z,4036.00
2018-07-27T11:41:21.229Z,3984.00
2018-07-27T11:42:21.056Z,3956.00
2018-07-27T11:44:13.725Z,3968.00
2018-07-27T11:45:13.614Z,3968.00
2018-07-27T11:47:06.319Z,3968.00
2018-07-27T11:48:06.252Z,3972.00
2018-07-27T11:49:58.963Z,3960.00
2018-07-27T11:50:58.840Z,3952.00
2018-07-27T11:52:51.564Z,3956.00
2018-07-27T11:53:51.444Z,3944.00
2018-07-27T11:55:44.168Z,3916.00
2018-07-27T11:56:44.059Z,3920.00
2018-07-27T11:58:36.759Z,3912.00
2018-07-27T11:59:36.658Z,3896.00
2018-07-27T12:01:29.392Z,3884.00
2018-07-27T12:02:29.282Z,3884.00
2018-07-27T12:04:22.000Z,3916.00
2018-07-27T12:05:21.913Z,3960.00
2018-07-27T12:07:14.615Z,4044.00
2018-07-27T12:08:14.542Z,4084.00
2018-07-27T12:10:07.216Z,4116.00
2018-07-27T12:11:07.125Z,4096.00
2018-07-27T12:12:59.853Z,4112.00
2018-07-27T12:13:59.841Z,4160.00
2018-07-27T12:15:52.477Z,4160.00
2018-07-27T12:16:52.357Z,4156.00
2018-07-27T12:18:45.058Z,4116.00
2018-07-27T12:19:44.976Z,4072.00
2018-07-27T12:21:37.979Z,4076.00
2018-07-27T12:22:37.597Z,4080.00
2018-07-27T12:24:30.292Z,4060.00
2018-07-27T12:25:30.205Z,4048.00
2018-07-27T12:27:22.924Z,4020.00
2018-07-27T12:28:22.817Z,3980.00
2018-07-27T12:30:15.520Z,4004.00
2018-07-27T12:31:15.423Z,4040.00
2018-07-27T12:33:08.166Z,4036.00
2018-07-27T12:34:08.037Z,4040.00
2018-07-27T12:36:00.744Z,4076.00
2018-07-27T12:37:00.648Z,4060.00
2018-07-27T12:38:53.381Z,4092.00
2018-07-27T12:39:53.260Z,4140.00
2018-07-27T12:41:45.990Z,4140.00
2018-07-27T12:42:46.038Z,4156.00
2018-07-27T12:44:38.601Z,4176.00
2018-07-27T12:45:38.488Z,4148.00
2018-07-27T12:47:31.208Z,4144.00
2018-07-27T12:48:31.145Z,4168.00
2018-07-27T12:50:23.807Z,4164.00
2018-07-27T12:51:23.764Z,4136.00
2018-07-27T12:53:16.427Z,4104.00
2018-07-27T12:54:16.321Z,4076.00
2018-07-27T12:56:09.027Z,4024.00
2018-07-27T12:57:08.932Z,4032.00
2018-07-27T12:59:01.665Z,4012.00
2018-07-27T13:00:01.545Z,4000.00
2018-07-27T13:01:54.256Z,3992.00
2018-07-27T13:02:54.155Z,3976.00
2018-07-27T13:04:46.886Z,3980.00
2018-07-27T13:05:46.785Z,4012.00
2018-07-27T13:07:39.489Z,4028.00
2018-07-27T13:08:39.382Z,4056.00
2018-07-27T13:10:32.085Z,4104.00
2018-07-27T13:11:31.994Z,4092.00
2018-07-27T13:13:24.723Z,4136.00
2018-07-27T13:14:24.615Z,4176.00
2018-07-27T13:16:17.314Z,4196.00
2018-07-27T13:17:17.220Z,4204.00
2018-07-27T13:19:09.942Z,4200.00
2018-07-27T13:20:09.828Z,4212.00
2018-07-27T13:22:02.626Z,4212.00
2018-07-27T13:23:02.447Z,4192.00
2018-07-27T13:27:47.780Z,4128.00
2018-07-27T13:28:47.679Z,4124.00
2018-07-27T13:30:40.409Z,4128.00
2018-07-27T13:31:40.301Z,4120.00
2018-07-27T13:33:33.036Z,4120.00
2018-07-27T13:34:32.949Z,4120.00
2018-07-27T13:36:25.619Z,4088.00
2018-07-27T13:37:25.522Z,4084.00
2018-07-27T13:39:18.255Z,4052.00
2018-07-27T13:40:18.138Z,4048.00
2018-07-27T13:42:10.840Z,4028.00
2018-07-27T13:43:10.755Z,3968.00
2018-07-27T13:45:03.480Z,3972.00
2018-07-27T13:46:03.367Z,3972.00
2018-07-27T13:47:56.071Z,4004.00
2018-07-27T13:48:55.977Z,3956.00
2018-07-27T13:50:48.697Z,3944.00
2018-07-27T13:51:48.589Z,3940.00
2018-07-27T13:53:41.294Z,3948.00
2018-07-27T13:54:41.209Z,3940.00
2018-07-27T13:56:33.939Z,3936.00
2018-07-27T13:57:33.843Z,3960.00
2018-07-27T13:59:26.526Z,3944.00
2018-07-27T14:00:26.440Z,3936.00
2018-07-27T14:02:19.160Z,3908.00
2018-07-27T14:03:19.061Z,3916.00
2018-07-27T14:05:11.777Z,3908.00
2018-07-27T14:06:11.663Z,3896.00
2018-07-27T14:08:04.376Z,3900.00
2018-07-27T14:09:04.284Z,3860.00
2018-07-27T14:10:57.009Z,3836.00
2018-07-27T14:11:56.892Z,3872.00
2018-07-27T14:13:49.601Z,3860.00
2018-07-27T14:14:49.507Z,3828.00
2018-07-27T14:16:42.231Z,3832.00
2018-07-27T14:17:42.134Z,3824.00
2018-07-27T14:19:34.856Z,3800.00
2018-07-27T14:20:34.731Z,3768.00
2018-07-27T14:22:27.463Z,3800.00
2018-07-27T14:23:27.342Z,3792.00
2018-07-27T14:25:20.055Z,3780.00
2018-07-27T14:26:19.964Z,3744.00
2018-07-27T14:28:12.687Z,3768.00
2018-07-27T14:29:12.599Z,3764.00
2018-07-27T14:31:05.300Z,3772.00
2018-07-27T14:32:05.192Z,3756.00
2018-07-27T14:33:57.910Z,3752.00
2018-07-27T14:34:57.810Z,3776.00
2018-07-27T14:36:50.566Z,3772.00
2018-07-27T14:37:50.415Z,3772.00
2018-07-27T14:39:43.128Z,3760.00
2018-07-27T14:40:43.030Z,3752.00
2018-07-27T14:42:35.763Z,3756.00
2018-07-27T14:43:35.640Z,3760.00
2018-07-27T14:45:28.353Z,3752.00
2018-07-27T14:46:28.257Z,3720.00
2018-07-27T14:48:20.984Z,3696.00
2018-07-27T14:49:20.874Z,3732.00
2018-07-27T14:51:13.581Z,3728.00
2018-07-27T14:52:13.548Z,3728.00
2018-07-27T14:54:06.222Z,3740.00
2018-07-27T14:55:06.157Z,3716.00
2018-07-27T14:56:58.817Z,3728.00
2018-07-27T14:57:58.725Z,3768.00
2018-07-27T14:59:51.449Z,3772.00
2018-07-27T15:00:51.340Z,3772.00
2018-07-27T15:02:44.061Z,3776.00
2018-07-27T15:03:43.958Z,3792.00
2018-07-27T15:05:36.691Z,3800.00
2018-07-27T15:06:36.570Z,3804.00
2018-07-27T15:08:29.301Z,3788.00
2018-07-27T15:09:29.185Z,3732.00
2018-07-27T15:11:21.898Z,3724.00
2018-07-27T15:12:21.796Z,3744.00
2018-07-27T15:14:14.535Z,3736.00
2018-07-27T15:15:14.435Z,3748.00
2018-07-27T15:17:07.133Z,3748.00
2018-07-27T15:18:07.044Z,3740.00
2018-07-27T15:19:59.766Z,3748.00
2018-07-27T15:20:59.652Z,3748.00
2018-07-27T15:22:52.365Z,3720.00
2018-07-27T15:23:52.270Z,3720.00
2018-07-27T15:25:45.007Z,3728.00
2018-07-27T15:26:44.885Z,3732.00
2018-07-27T15:28:37.602Z,3712.00
2018-07-27T15:29:37.505Z,3712.00
2018-07-27T15:31:30.234Z,3712.00
2018-07-27T15:32:30.131Z,3720.00
2018-07-27T15:34:22.834Z,3712.00
2018-07-27T15:35:22.727Z,3712.00
2018-07-27T15:37:15.429Z,3708.00
2018-07-27T15:38:15.348Z,3664.00
2018-07-27T15:40:08.067Z,3664.00
2018-07-27T15:41:07.966Z,3696.00
2018-07-27T15:43:00.671Z,3696.00
2018-07-27T15:44:00.571Z,3704.00
2018-07-27T15:45:53.291Z,3716.00
2018-07-27T15:46:53.188Z,3720.00
2018-07-27T15:48:45.892Z,3724.00
2018-07-27T15:49:45.794Z,3700.00
2018-07-27T15:51:38.529Z,3704.00
2018-07-27T15:52:38.406Z,3736.00
2018-07-27T15:54:31.113Z,3720.00
2018-07-27T15:55:31.011Z,3728.00
2018-07-27T15:57:23.750Z,3716.00
2018-07-27T15:59:36.394Z,3736.00
2018-07-27T16:00:36.299Z,3740.00
2018-07-27T16:02:29.015Z,3740.00
2018-07-27T16:03:28.910Z,3704.00
2018-07-27T16:05:21.656Z,3680.00
2018-07-27T16:06:21.526Z,3692.00
2018-07-27T16:08:14.230Z,3684.00
2018-07-27T16:09:14.139Z,3684.00
2018-07-27T16:11:06.863Z,3676.00
2018-07-27T16:12:06.745Z,3636.00
2018-07-27T16:13:59.471Z,3624.00
2018-07-27T16:14:59.373Z,3624.00
2018-07-27T16:16:52.110Z,3548.00
2018-07-27T16:17:51.986Z,3548.00
2018-07-27T16:19:44.689Z,2908.00
2018-07-27T16:20:44.601Z,2680.00
2018-07-27T16:22:37.319Z,3456.00
2018-07-27T16:23:37.207Z,3516.00
2018-07-27T16:25:29.917Z,3532.00
2018-07-27T16:26:29.820Z,3492.00
2018-07-27T16:28:22.540Z,3516.00
2018-07-27T16:29:22.431Z,3564.00
2018-07-27T16:31:15.128Z,3540.00
2018-07-27T16:32:15.096Z,3536.00
2018-07-27T16:34:07.757Z,3504.00
2018-07-27T16:35:07.652Z,3488.00
2018-07-27T16:37:00.347Z,3472.00
2018-07-27T16:38:00.256Z,3428.00
2018-07-27T16:39:52.998Z,3424.00
2018-07-27T16:40:52.887Z,3412.00
2018-07-27T16:42:45.643Z,3356.00
2018-07-27T16:43:45.497Z,3304.00
2018-07-27T16:45:38.203Z,3292.00
2018-07-27T16:46:38.111Z,3304.00
2018-07-27T16:48:30.833Z,3292.00
2018-07-27T16:49:30.721Z,3272.00
2018-07-27T16:51:23.424Z,3256.00
2018-07-27T16:52:23.334Z,3248.00
2018-07-27T16:54:16.056Z,3176.00
2018-07-27T16:55:15.943Z,3188.00
2018-07-27T16:57:08.655Z,3168.00
2018-07-27T16:58:08.558Z,3168.00
2018-07-27T17:00:01.278Z,3132.00
2018-07-27T17:01:01.171Z,3104.00
2018-07-27T17:02:53.875Z,3064.00
2018-07-27T17:03:53.778Z,3048.00
2018-07-27T17:05:46.504Z,3040.00
2018-07-27T17:06:46.391Z,3012.00
2018-07-27T17:08:39.132Z,2996.00
2018-07-27T17:09:39.005Z,2996.00
2018-07-27T17:11:31.749Z,2940.00
2018-07-27T17:12:31.617Z,2964.00
2018-07-27T17:14:24.343Z,2924.00
2018-07-27T17:15:24.256Z,2900.00
2018-07-27T17:17:16.925Z,2872.00
2018-07-27T17:18:16.838Z,2856.00
2018-07-27T17:20:09.597Z,2832.00
2018-07-27T17:21:09.445Z,2820.00
2018-07-27T17:23:02.158Z,2784.00
2018-07-27T17:24:02.059Z,2756.00
2018-07-27T17:25:54.781Z,2720.00
2018-07-27T17:26:54.674Z,2684.00
2018-07-27T17:28:47.377Z,2692.00
2018-07-27T17:29:47.274Z,2688.00
2018-07-27T17:31:39.990Z,2652.00
2018-07-27T17:32:39.893Z,2632.00
2018-07-27T17:34:32.619Z,2604.00
2018-07-27T17:35:32.492Z,2600.00
2018-07-27T17:37:25.200Z,2588.00
2018-07-27T17:38:25.096Z,2572.00
2018-07-27T17:40:17.821Z,2536.00
2018-07-27T17:41:17.709Z,2524.00
2018-07-27T17:43:10.430Z,2512.00
2018-07-27T17:44:10.321Z,2496.00
2018-07-27T17:46:03.042Z,2492.00
2018-07-27T17:47:02.927Z,2464.00
2018-07-27T17:48:55.636Z,2444.00
2018-07-27T17:49:55.538Z,2428.00
2018-07-27T17:51:48.355Z,2364.00
2018-07-27T17:52:48.153Z,2352.00
2018-07-27T17:54:40.873Z,2296.00
2018-07-27T17:55:40.753Z,2268.00
2018-07-27T17:57:33.499Z,2224.00
2018-07-27T17:58:33.376Z,2208.00
2018-07-27T18:00:26.094Z,2172.00
2018-07-27T18:01:25.992Z,2156.00
2018-07-27T18:03:18.710Z,2120.00
2018-07-27T18:04:18.595Z,2104.00
2018-07-27T18:06:11.323Z,2080.00
2018-07-27T18:07:11.246Z,2072.00
2018-07-27T18:09:03.907Z,2024.00
2018-07-27T18:10:03.811Z,2004.00
2018-07-27T18:11:56.533Z,1980.00
2018-07-27T18:12:56.423Z,1960.00
2018-07-27T18:14:49.131Z,1924.00
2018-07-27T18:15:49.031Z,1904.00
2018-07-27T18:17:41.756Z,1868.00
2018-07-27T18:18:41.642Z,1848.00
2018-07-27T18:20:34.349Z,1804.00
2018-07-27T18:21:34.259Z,1780.00
2018-07-27T18:23:26.970Z,1740.00
2018-07-27T18:24:26.864Z,1716.00
2018-07-27T18:26:19.594Z,1656.00
2018-07-27T18:27:19.485Z,1632.00
2018-07-27T18:29:12.222Z,1624.00
2018-07-27T18:30:12.141Z,1604.00
2018-07-27T18:32:04.842Z,1560.00
2018-07-27T18:33:04.732Z,1480.00
2018-07-27T18:34:57.435Z,1424.00
2018-07-27T18:35:57.340Z,1372.00
2018-07-27T18:37:50.067Z,1264.00
2018-07-27T18:38:49.946Z,1204.00
2018-07-27T18:40:42.656Z,1152.00
2018-07-27T18:41:42.567Z,1140.00
2018-07-27T18:43:35.282Z,1100.00
2018-07-27T18:44:35.226Z,1072.00
2018-07-27T18:46:27.896Z,1028.00
2018-07-27T18:47:27.777Z,1004.00
2018-07-27T18:49:20.493Z,956.00
2018-07-27T18:50:20.397Z,940.00
2018-07-27T18:52:13.161Z,908.00
2018-07-27T18:53:13.067Z,888.00
2018-07-27T18:55:05.771Z,868.00
2018-07-27T18:56:05.654Z,840.00
2018-07-27T18:57:58.352Z,776.00
2018-07-27T18:58:58.244Z,740.00
2018-07-27T19:00:50.941Z,672.00
2018-07-27T19:01:50.852Z,636.00
2018-07-27T19:03:43.573Z,572.00
2018-07-27T19:04:43.460Z,548.00
2018-07-27T19:06:36.679Z,508.00
2018-07-27T19:07:36.571Z,488.00
2018-07-27T19:09:29.274Z,444.00
2018-07-27T19:10:29.184Z,420.00
2018-07-27T19:12:21.910Z,384.00
2018-07-27T19:13:21.791Z,360.00
2018-07-27T19:15:14.489Z,332.00
2018-07-27T19:16:14.398Z,316.00
2018-07-27T19:18:07.110Z,288.00
2018-07-27T19:19:07.002Z,268.00
2018-07-27T19:20:59.694Z,240.00
2018-07-27T19:21:59.605Z,224.00
2018-07-27T19:23:52.318Z,196.00
2018-07-27T19:24:52.205Z,180.00
2018-07-27T19:26:44.927Z,156.00
2018-07-27T19:27:44.804Z,144.00
2018-07-27T19:29:37.500Z,124.00
2018-07-27T19:30:37.403Z,112.00
2018-07-27T19:32:30.118Z,92.00
2018-07-27T19:33:30.011Z,80.00
2018-07-27T19:35:22.705Z,68.00
2018-07-27T19:36:22.611Z,60.00
2018-07-27T19:38:15.329Z,48.00
2018-07-27T19:39:15.223Z,48.00
2018-07-27T19:41:07.913Z,36.00
2018-07-27T19:42:07.827Z,32.00
2018-07-27T19:44:00.540Z,28.00
2018-07-27T19:45:00.418Z,24.00
2018-07-27T19:46:53.118Z,20.00
2018-07-27T19:47:53.022Z,16.00
2018-07-27T19:49:45.747Z,12.00
2018-07-27T19:50:45.628Z,12.00
2018-07-27T19:52:38.337Z,8.00
2018-07-27T19:53:38.232Z,8.00
2018-07-27T19:55:30.923Z,8.00
2018-07-27T19:56:30.843Z,4.00
2018-07-27T19:58:23.542Z,8.00
2018-07-27T19:59:23.423Z,4.00
2018-07-27T20:01:16.123Z,0.00
2018-07-27T20:02:16.084Z,4.00
2018-07-27T20:04:08.736Z,4.00
2018-07-27T20:05:08.622Z,4.00
2018-07-27T20:07:01.324Z,0.00
2018-07-27T20:08:01.230Z,0.00
2018-07-27T20:09:53.941Z,0.00
2018-07-27T20:10:53.825Z,0.00
2018-07-27T20:12:46.537Z,0.00
2018-07-27T20:13:46.427Z,0.00
2018-07-27T20:15:39.132Z,0.00
2018-07-27T20:16:39.037Z,0.00
2018-07-27T20:18:31.754Z,0.00
2018-07-27T20:19:31.644Z,0.00
2018-07-27T20:21:24.393Z,0.00
2018-07-27T20:22:24.259Z,0.00
2018-07-27T20:24:16.964Z,0.00
2018-07-27T20:25:16.839Z,0.00
2018-07-27T20:27:09.615Z,0.00
2018-07-27T20:28:09.512Z,0.00
2018-07-27T20:30:02.218Z,0.00
2018-07-27T20:31:02.113Z,0.00
2018-07-27T20:32:54.815Z,0.00
2018-07-27T20:33:54.705Z,0.00
2018-07-27T20:35:47.412Z,0.00
2018-07-27T20:36:47.310Z,0.00
2018-07-27T20:38:40.511Z,0.00
2018-07-27T20:39:40.404Z,0.00
2018-07-27T20:41:33.101Z,0.00
2018-07-27T20:42:33.001Z,0.00
2018-07-27T20:44:25.734Z,0.00
2018-07-27T20:45:25.620Z,0.00
2018-07-27T20:47:18.313Z,0.00
2018-07-27T20:48:18.221Z,0.00
2018-07-27T20:50:10.940Z,0.00
2018-07-27T20:51:10.818Z,0.00
2018-07-27T20:53:03.522Z,0.00
2018-07-27T20:54:03.414Z,0.00
2018-07-27T20:55:56.124Z,0.00
2018-07-27T20:56:56.021Z,0.00
2018-07-27T20:58:48.725Z,0.00
2018-07-27T20:59:48.634Z,0.00
2018-07-27T21:01:41.808Z,0.00
2018-07-27T21:02:41.709Z,0.00
2018-07-27T21:04:34.503Z,0.00
2018-07-27T21:05:34.312Z,0.00
2018-07-27T21:07:27.011Z,0.00
2018-07-27T21:08:26.919Z,0.00
2018-07-27T21:10:19.626Z,0.00
2018-07-27T21:11:19.509Z,0.00
2018-07-27T21:13:12.223Z,0.00
2018-07-27T21:14:12.102Z,0.00
2018-07-27T21:16:04.796Z,0.00
2018-07-27T21:17:04.694Z,0.00
2018-07-27T21:18:57.416Z,0.00
2018-07-27T21:19:57.311Z,0.00
2018-07-27T21:21:50.013Z,0.00
2018-07-27T21:22:49.895Z,0.00
2018-07-27T21:24:42.610Z,0.00
2018-07-27T21:25:42.498Z,0.00
2018-07-27T21:27:35.184Z,0.00
2018-07-27T21:28:35.091Z,0.00
2018-07-27T21:30:27.804Z,0.00
2018-07-27T21:31:27.682Z,0.00
2018-07-27T21:33:20.375Z,0.00
2018-07-27T21:34:20.278Z,0.00
2018-07-27T21:36:12.997Z,0.00
2018-07-27T21:37:12.876Z,0.00
2018-07-27T21:39:05.595Z,0.00
2018-07-27T21:40:05.473Z,0.00
2018-07-27T21:41:58.182Z,0.00
2018-07-27T21:42:58.069Z,0.00
2018-07-27T21:44:50.942Z,0.00
2018-07-27T21:45:50.699Z,0.00
2018-07-27T21:47:43.386Z,0.00
2018-07-27T21:48:43.262Z,0.00
2018-07-27T21:50:35.978Z,0.00